sensor_id;sensor_type;location;lat;lon;timestamp;temperature;humidity
3816;DHT22;1923;48.154;11.536;2022-07-29T00:01:17;22.20;99.90
3816;DHT22;1923;48.154;11.536;2022-07-29T00:03:46;22.10;99.90
3816;DHT22;1923;48.154;11.536;2022-07-29T00:06:14;22.10;99.90
3816;DHT22;1923;48.154;11.536;2022-07-29T00:08:44;22.00;99.90
3816;DHT22;1923;48.154;11.536;2022-07-29T00:11:12;22.00;99.90
3816;DHT22;1923;48.154;11.536;2022-07-29T00:13:40;22.00;99.90
3816;DHT22;1923;48.154;11.536;2022-07-29T00:16:13;22.00;99.90
3816;DHT22;1923;48.154;11.536;2022-07-29T00:18:41;22.00;99.90
3816;DHT22;1923;48.154;11.536;2022-07-29T00:21:10;21.90;99.90
3816;DHT22;1923;48.154;11.536;2022-07-29T00:23:38;22.00;99.90
3816;DHT22;1923;48.154;11.536;2022-07-29T00:26:14;22.00;99.90
3816;DHT22;1923;48.154;11.536;2022-07-29T00:28:42;21.90;99.90
3816;DHT22;1923;48.154;11.536;2022-07-29T00:31:10;21.80;99.90
3816;DHT22;1923;48.154;11.536;2022-07-29T00:33:39;21.80;99.90
3816;DHT22;1923;48.154;11.536;2022-07-29T00:36:08;21.80;99.90
3816;DHT22;1923;48.154;11.536;2022-07-29T00:38:37;21.80;99.90
3816;DHT22;1923;48.154;11.536;2022-07-29T00:41:08;21.70;99.90
3816;DHT22;1923;48.154;11.536;2022-07-29T00:43:37;21.80;99.90
3816;DHT22;1923;48.154;11.536;2022-07-29T00:46:05;21.80;99.90
3816;DHT22;1923;48.154;11.536;2022-07-29T00:48:33;21.80;99.90
3816;DHT22;1923;48.154;11.536;2022-07-29T00:51:03;21.80;99.90
3816;DHT22;1923;48.154;11.536;2022-07-29T00:53:32;21.80;99.90
3816;DHT22;1923;48.154;11.536;2022-07-29T00:56:00;21.80;99.90
3816;DHT22;1923;48.154;11.536;2022-07-29T00:58:28;21.80;99.90
3816;DHT22;1923;48.154;11.536;2022-07-29T01:00:58;21.80;99.90
3816;DHT22;1923;48.154;11.536;2022-07-29T01:03:26;21.70;99.90
3816;DHT22;1923;48.154;11.536;2022-07-29T01:05:55;21.90;99.90
3816;DHT22;1923;48.154;11.536;2022-07-29T01:08:23;21.90;99.90
3816;DHT22;1923;48.154;11.536;2022-07-29T01:10:53;21.80;99.90
3816;DHT22;1923;48.154;11.536;2022-07-29T01:13:25;21.90;99.90
3816;DHT22;1923;48.154;11.536;2022-07-29T01:15:56;21.90;99.90
3816;DHT22;1923;48.154;11.536;2022-07-29T01:18:31;21.90;99.90
3816;DHT22;1923;48.154;11.536;2022-07-29T01:21:27;21.80;99.90
3816;DHT22;1923;48.154;11.536;2022-07-29T01:24:11;21.90;99.90
3816;DHT22;1923;48.154;11.536;2022-07-29T01:26:47;21.90;99.90
3816;DHT22;1923;48.154;11.536;2022-07-29T01:29:24;22.00;99.90
3816;DHT22;1923;48.154;11.536;2022-07-29T01:32:08;22.10;99.90
3816;DHT22;1923;48.154;11.536;2022-07-29T01:34:58;22.10;99.90
3816;DHT22;1923;48.154;11.536;2022-07-29T01:37:30;22.10;99.90
3816;DHT22;1923;48.154;11.536;2022-07-29T01:40:08;22.10;99.90
3816;DHT22;1923;48.154;11.536;2022-07-29T01:42:42;22.10;99.90
3816;DHT22;1923;48.154;11.536;2022-07-29T01:45:15;22.20;99.90
3816;DHT22;1923;48.154;11.536;2022-07-29T01:47:49;22.10;99.90
3816;DHT22;1923;48.154;11.536;2022-07-29T01:50:31;22.10;99.90
3816;DHT22;1923;48.154;11.536;2022-07-29T01:53:03;22.10;99.90
3816;DHT22;1923;48.154;11.536;2022-07-29T01:55:36;22.10;99.90
3816;DHT22;1923;48.154;11.536;2022-07-29T01:58:08;22.10;99.90
3816;DHT22;1923;48.154;11.536;2022-07-29T02:00:44;22.10;99.90
3816;DHT22;1923;48.154;11.536;2022-07-29T02:03:13;22.20;99.90
3816;DHT22;1923;48.154;11.536;2022-07-29T02:05:44;22.10;99.90
3816;DHT22;1923;48.154;11.536;2022-07-29T02:08:13;22.20;99.90
3816;DHT22;1923;48.154;11.536;2022-07-29T02:10:43;22.30;99.90
3816;DHT22;1923;48.154;11.536;2022-07-29T02:13:13;22.20;99.90
3816;DHT22;1923;48.154;11.536;2022-07-29T02:15:44;22.20;99.90
3816;DHT22;1923;48.154;11.536;2022-07-29T02:18:16;22.20;99.90
3816;DHT22;1923;48.154;11.536;2022-07-29T02:20:48;22.20;99.90
3816;DHT22;1923;48.154;11.536;2022-07-29T02:23:19;22.10;99.90
3816;DHT22;1923;48.154;11.536;2022-07-29T02:25:49;22.00;99.90
3816;DHT22;1923;48.154;11.536;2022-07-29T02:28:19;22.00;99.90
3816;DHT22;1923;48.154;11.536;2022-07-29T02:30:50;22.10;99.90
3816;DHT22;1923;48.154;11.536;2022-07-29T02:33:20;22.10;99.90
3816;DHT22;1923;48.154;11.536;2022-07-29T02:35:50;22.00;99.90
3816;DHT22;1923;48.154;11.536;2022-07-29T02:38:18;22.00;99.90
3816;DHT22;1923;48.154;11.536;2022-07-29T02:41:09;22.00;99.90
3816;DHT22;1923;48.154;11.536;2022-07-29T02:43:39;21.90;99.90
3816;DHT22;1923;48.154;11.536;2022-07-29T02:46:13;21.90;99.90
3816;DHT22;1923;48.154;11.536;2022-07-29T02:48:58;21.90;99.90
3816;DHT22;1923;48.154;11.536;2022-07-29T02:51:32;21.90;99.90
3816;DHT22;1923;48.154;11.536;2022-07-29T02:54:11;21.80;99.90
3816;DHT22;1923;48.154;11.536;2022-07-29T02:56:43;21.80;99.90
3816;DHT22;1923;48.154;11.536;2022-07-29T02:59:13;21.70;99.90
3816;DHT22;1923;48.154;11.536;2022-07-29T03:01:43;21.80;99.90
3816;DHT22;1923;48.154;11.536;2022-07-29T03:04:12;21.70;99.90
3816;DHT22;1923;48.154;11.536;2022-07-29T03:06:43;21.60;99.90
3816;DHT22;1923;48.154;11.536;2022-07-29T03:09:12;21.60;99.90
3816;DHT22;1923;48.154;11.536;2022-07-29T03:11:42;21.60;99.90
3816;DHT22;1923;48.154;11.536;2022-07-29T03:14:17;21.60;99.90
3816;DHT22;1923;48.154;11.536;2022-07-29T03:16:49;21.50;99.90
3816;DHT22;1923;48.154;11.536;2022-07-29T03:19:18;21.50;99.90
3816;DHT22;1923;48.154;11.536;2022-07-29T03:21:47;21.40;99.90
3816;DHT22;1923;48.154;11.536;2022-07-29T03:24:26;21.40;99.90
3816;DHT22;1923;48.154;11.536;2022-07-29T03:26:55;21.40;99.90
3816;DHT22;1923;48.154;11.536;2022-07-29T03:29:23;21.30;99.90
3816;DHT22;1923;48.154;11.536;2022-07-29T03:32:02;21.30;99.90
3816;DHT22;1923;48.154;11.536;2022-07-29T03:34:35;21.20;99.90
3816;DHT22;1923;48.154;11.536;2022-07-29T03:37:05;21.20;99.90
3816;DHT22;1923;48.154;11.536;2022-07-29T03:39:36;21.20;99.90
3816;DHT22;1923;48.154;11.536;2022-07-29T03:42:07;21.20;99.90
3816;DHT22;1923;48.154;11.536;2022-07-29T03:44:37;21.20;99.90
3816;DHT22;1923;48.154;11.536;2022-07-29T03:47:08;21.20;99.90
3816;DHT22;1923;48.154;11.536;2022-07-29T03:49:37;21.30;99.90
3816;DHT22;1923;48.154;11.536;2022-07-29T03:52:07;21.20;99.90
3816;DHT22;1923;48.154;11.536;2022-07-29T03:54:35;21.20;99.90
3816;DHT22;1923;48.154;11.536;2022-07-29T03:57:04;21.20;99.90
3816;DHT22;1923;48.154;11.536;2022-07-29T03:59:33;21.20;99.90
3816;DHT22;1923;48.154;11.536;2022-07-29T04:02:02;21.10;99.90
3816;DHT22;1923;48.154;11.536;2022-07-29T04:04:34;21.20;99.90
3816;DHT22;1923;48.154;11.536;2022-07-29T04:07:03;21.30;99.90
3816;DHT22;1923;48.154;11.536;2022-07-29T04:09:31;21.20;99.90
3816;DHT22;1923;48.154;11.536;2022-07-29T04:11:59;21.20;99.90
3816;DHT22;1923;48.154;11.536;2022-07-29T04:14:30;21.10;99.90
3816;DHT22;1923;48.154;11.536;2022-07-29T04:16:58;21.20;99.90
3816;DHT22;1923;48.154;11.536;2022-07-29T04:19:27;21.20;99.90
3816;DHT22;1923;48.154;11.536;2022-07-29T04:21:57;21.20;99.90
3816;DHT22;1923;48.154;11.536;2022-07-29T04:24:26;21.20;99.90
3816;DHT22;1923;48.154;11.536;2022-07-29T04:26:54;21.20;99.90
3816;DHT22;1923;48.154;11.536;2022-07-29T04:29:22;21.10;99.90
3816;DHT22;1923;48.154;11.536;2022-07-29T04:31:50;21.20;99.90
3816;DHT22;1923;48.154;11.536;2022-07-29T04:34:18;21.20;99.90
3816;DHT22;1923;48.154;11.536;2022-07-29T04:36:47;21.30;99.90
3816;DHT22;1923;48.154;11.536;2022-07-29T04:39:16;21.40;99.90
3816;DHT22;1923;48.154;11.536;2022-07-29T04:41:49;21.40;99.90
3816;DHT22;1923;48.154;11.536;2022-07-29T04:44:22;21.50;99.90
3816;DHT22;1923;48.154;11.536;2022-07-29T04:46:55;21.60;99.90
3816;DHT22;1923;48.154;11.536;2022-07-29T04:49:23;21.70;99.90
3816;DHT22;1923;48.154;11.536;2022-07-29T04:51:51;21.70;99.90
3816;DHT22;1923;48.154;11.536;2022-07-29T04:54:21;21.90;99.90
3816;DHT22;1923;48.154;11.536;2022-07-29T04:56:50;22.00;99.90
3816;DHT22;1923;48.154;11.536;2022-07-29T04:59:18;22.00;99.90
3816;DHT22;1923;48.154;11.536;2022-07-29T05:01:46;22.00;99.90
3816;DHT22;1923;48.154;11.536;2022-07-29T05:04:14;22.10;99.90
3816;DHT22;1923;48.154;11.536;2022-07-29T05:06:43;22.10;99.90
3816;DHT22;1923;48.154;11.536;2022-07-29T05:09:11;22.20;99.90
3816;DHT22;1923;48.154;11.536;2022-07-29T05:11:40;22.20;99.90
3816;DHT22;1923;48.154;11.536;2022-07-29T05:14:08;22.20;99.90
3816;DHT22;1923;48.154;11.536;2022-07-29T05:16:36;22.30;99.90
3816;DHT22;1923;48.154;11.536;2022-07-29T05:19:05;22.30;99.90
3816;DHT22;1923;48.154;11.536;2022-07-29T05:21:39;22.30;99.90
3816;DHT22;1923;48.154;11.536;2022-07-29T05:24:08;22.30;99.90
3816;DHT22;1923;48.154;11.536;2022-07-29T05:26:36;22.20;99.90
3816;DHT22;1923;48.154;11.536;2022-07-29T05:29:05;22.30;99.90
3816;DHT22;1923;48.154;11.536;2022-07-29T05:31:53;22.40;99.90
3816;DHT22;1923;48.154;11.536;2022-07-29T05:34:21;22.40;99.90
3816;DHT22;1923;48.154;11.536;2022-07-29T05:36:50;22.50;99.90
3816;DHT22;1923;48.154;11.536;2022-07-29T05:39:18;22.50;99.90
3816;DHT22;1923;48.154;11.536;2022-07-29T05:41:46;22.70;99.90
3816;DHT22;1923;48.154;11.536;2022-07-29T05:44:19;22.70;99.90
3816;DHT22;1923;48.154;11.536;2022-07-29T05:46:51;22.70;99.90
3816;DHT22;1923;48.154;11.536;2022-07-29T05:49:19;22.60;99.90
3816;DHT22;1923;48.154;11.536;2022-07-29T05:51:53;22.60;99.90
3816;DHT22;1923;48.154;11.536;2022-07-29T05:54:21;22.60;99.90
3816;DHT22;1923;48.154;11.536;2022-07-29T05:56:49;22.60;99.90
3816;DHT22;1923;48.154;11.536;2022-07-29T05:59:19;22.70;99.90
3816;DHT22;1923;48.154;11.536;2022-07-29T06:01:47;22.80;99.90
3816;DHT22;1923;48.154;11.536;2022-07-29T06:04:15;22.90;99.90
3816;DHT22;1923;48.154;11.536;2022-07-29T06:06:43;22.90;99.90
3816;DHT22;1923;48.154;11.536;2022-07-29T06:09:11;23.00;99.90
3816;DHT22;1923;48.154;11.536;2022-07-29T06:11:40;23.00;99.90
3816;DHT22;1923;48.154;11.536;2022-07-29T06:14:09;23.20;99.90
3816;DHT22;1923;48.154;11.536;2022-07-29T06:16:38;23.20;99.90
3816;DHT22;1923;48.154;11.536;2022-07-29T06:19:06;23.30;99.90
3816;DHT22;1923;48.154;11.536;2022-07-29T06:21:35;23.40;99.90
3816;DHT22;1923;48.154;11.536;2022-07-29T06:24:08;23.50;99.90
3816;DHT22;1923;48.154;11.536;2022-07-29T06:26:36;23.50;99.90
3816;DHT22;1923;48.154;11.536;2022-07-29T06:29:05;23.60;99.90
3816;DHT22;1923;48.154;11.536;2022-07-29T06:31:34;23.70;99.90
3816;DHT22;1923;48.154;11.536;2022-07-29T06:34:04;23.70;99.90
3816;DHT22;1923;48.154;11.536;2022-07-29T06:36:34;23.70;99.90
3816;DHT22;1923;48.154;11.536;2022-07-29T06:39:04;23.90;99.90
3816;DHT22;1923;48.154;11.536;2022-07-29T06:41:33;23.90;99.90
3816;DHT22;1923;48.154;11.536;2022-07-29T06:44:02;24.10;99.90
3816;DHT22;1923;48.154;11.536;2022-07-29T06:46:31;24.20;99.90
3816;DHT22;1923;48.154;11.536;2022-07-29T06:48:59;24.40;99.90
3816;DHT22;1923;48.154;11.536;2022-07-29T06:51:30;24.70;99.90
3816;DHT22;1923;48.154;11.536;2022-07-29T06:53:58;25.10;99.90
3816;DHT22;1923;48.154;11.536;2022-07-29T06:56:29;25.30;99.90
3816;DHT22;1923;48.154;11.536;2022-07-29T06:59:04;25.40;99.90
3816;DHT22;1923;48.154;11.536;2022-07-29T07:01:32;25.50;99.40
3816;DHT22;1923;48.154;11.536;2022-07-29T07:04:00;25.80;99.20
3816;DHT22;1923;48.154;11.536;2022-07-29T07:06:29;26.10;98.40
3816;DHT22;1923;48.154;11.536;2022-07-29T07:08:57;26.20;98.60
3816;DHT22;1923;48.154;11.536;2022-07-29T07:11:26;26.30;97.80
3816;DHT22;1923;48.154;11.536;2022-07-29T07:13:54;26.30;97.70
3816;DHT22;1923;48.154;11.536;2022-07-29T07:16:28;26.40;97.90
3816;DHT22;1923;48.154;11.536;2022-07-29T07:18:57;26.40;97.60
3816;DHT22;1923;48.154;11.536;2022-07-29T07:21:25;26.40;97.80
3816;DHT22;1923;48.154;11.536;2022-07-29T07:23:58;26.40;97.60
3816;DHT22;1923;48.154;11.536;2022-07-29T07:26:26;26.30;97.00
3816;DHT22;1923;48.154;11.536;2022-07-29T07:28:55;26.30;97.70
3816;DHT22;1923;48.154;11.536;2022-07-29T07:31:23;26.30;97.00
3816;DHT22;1923;48.154;11.536;2022-07-29T07:33:51;26.30;97.60
3816;DHT22;1923;48.154;11.536;2022-07-29T07:36:20;26.20;97.40
3816;DHT22;1923;48.154;11.536;2022-07-29T07:38:48;26.10;97.60
3816;DHT22;1923;48.154;11.536;2022-07-29T07:41:18;26.30;97.60
3816;DHT22;1923;48.154;11.536;2022-07-29T07:43:46;26.40;97.20
3816;DHT22;1923;48.154;11.536;2022-07-29T07:46:14;26.50;96.90
3816;DHT22;1923;48.154;11.536;2022-07-29T07:48:43;26.70;96.40
3816;DHT22;1923;48.154;11.536;2022-07-29T07:51:11;26.90;96.00
3816;DHT22;1923;48.154;11.536;2022-07-29T07:53:39;27.00;95.40
3816;DHT22;1923;48.154;11.536;2022-07-29T07:56:08;27.50;95.40
3816;DHT22;1923;48.154;11.536;2022-07-29T07:58:39;28.00;94.20
3816;DHT22;1923;48.154;11.536;2022-07-29T08:01:08;28.80;92.90
3816;DHT22;1923;48.154;11.536;2022-07-29T08:03:36;29.40;91.70
3816;DHT22;1923;48.154;11.536;2022-07-29T08:06:05;29.80;91.20
3816;DHT22;1923;48.154;11.536;2022-07-29T08:08:33;30.20;90.30
3816;DHT22;1923;48.154;11.536;2022-07-29T08:11:02;30.30;90.00
3816;DHT22;1923;48.154;11.536;2022-07-29T08:13:36;30.20;88.60
3816;DHT22;1923;48.154;11.536;2022-07-29T08:16:06;30.20;88.20
3816;DHT22;1923;48.154;11.536;2022-07-29T08:18:43;30.20;87.40
3816;DHT22;1923;48.154;11.536;2022-07-29T08:21:11;30.10;87.50
3816;DHT22;1923;48.154;11.536;2022-07-29T08:23:41;30.20;87.40
3816;DHT22;1923;48.154;11.536;2022-07-29T08:26:23;30.30;86.60
3816;DHT22;1923;48.154;11.536;2022-07-29T08:28:51;30.40;87.10
3816;DHT22;1923;48.154;11.536;2022-07-29T08:31:21;30.80;87.00
3816;DHT22;1923;48.154;11.536;2022-07-29T08:33:49;31.40;85.10
3816;DHT22;1923;48.154;11.536;2022-07-29T08:36:17;31.90;83.40
3816;DHT22;1923;48.154;11.536;2022-07-29T08:38:47;32.00;82.50
3816;DHT22;1923;48.154;11.536;2022-07-29T08:41:16;32.40;81.60
3816;DHT22;1923;48.154;11.536;2022-07-29T08:43:46;33.10;79.60
3816;DHT22;1923;48.154;11.536;2022-07-29T08:46:14;33.70;77.40
3816;DHT22;1923;48.154;11.536;2022-07-29T08:48:43;33.40;77.00
3816;DHT22;1923;48.154;11.536;2022-07-29T08:51:16;33.10;76.90
3816;DHT22;1923;48.154;11.536;2022-07-29T08:53:46;33.00;76.90
3816;DHT22;1923;48.154;11.536;2022-07-29T08:56:17;33.10;77.60
3816;DHT22;1923;48.154;11.536;2022-07-29T08:58:46;32.80;77.30
3816;DHT22;1923;48.154;11.536;2022-07-29T09:01:22;32.70;77.10
3816;DHT22;1923;48.154;11.536;2022-07-29T09:04:04;32.40;77.30
3816;DHT22;1923;48.154;11.536;2022-07-29T09:06:37;32.00;78.00
3816;DHT22;1923;48.154;11.536;2022-07-29T09:09:07;31.70;79.50
3816;DHT22;1923;48.154;11.536;2022-07-29T09:11:36;31.60;79.50
3816;DHT22;1923;48.154;11.536;2022-07-29T09:14:04;31.50;79.60
3816;DHT22;1923;48.154;11.536;2022-07-29T09:16:50;31.70;79.60
3816;DHT22;1923;48.154;11.536;2022-07-29T09:19:23;31.70;80.40
3816;DHT22;1923;48.154;11.536;2022-07-29T09:21:51;32.00;80.50
3816;DHT22;1923;48.154;11.536;2022-07-29T09:24:35;32.30;78.70
3816;DHT22;1923;48.154;11.536;2022-07-29T09:27:17;32.70;78.20
3816;DHT22;1923;48.154;11.536;2022-07-29T09:29:46;32.90;78.20
3816;DHT22;1923;48.154;11.536;2022-07-29T09:32:14;32.90;77.10
3816;DHT22;1923;48.154;11.536;2022-07-29T09:34:43;33.10;77.60
3816;DHT22;1923;48.154;11.536;2022-07-29T09:37:11;33.20;76.20
3816;DHT22;1923;48.154;11.536;2022-07-29T09:39:53;33.10;76.20
3816;DHT22;1923;48.154;11.536;2022-07-29T09:42:28;33.10;76.00
3816;DHT22;1923;48.154;11.536;2022-07-29T09:44:59;33.30;75.70
3816;DHT22;1923;48.154;11.536;2022-07-29T09:47:41;33.40;74.70
3816;DHT22;1923;48.154;11.536;2022-07-29T09:50:12;33.00;75.40
3816;DHT22;1923;48.154;11.536;2022-07-29T09:52:46;32.60;76.10
3816;DHT22;1923;48.154;11.536;2022-07-29T09:55:15;32.00;77.00
3816;DHT22;1923;48.154;11.536;2022-07-29T09:57:46;31.60;78.10
3816;DHT22;1923;48.154;11.536;2022-07-29T10:00:16;31.70;78.60
3816;DHT22;1923;48.154;11.536;2022-07-29T10:02:46;31.80;78.30
3816;DHT22;1923;48.154;11.536;2022-07-29T10:05:20;31.50;78.70
3816;DHT22;1923;48.154;11.536;2022-07-29T10:07:50;31.30;79.50
3816;DHT22;1923;48.154;11.536;2022-07-29T10:10:22;31.10;80.10
3816;DHT22;1923;48.154;11.536;2022-07-29T10:12:53;30.50;80.50
3816;DHT22;1923;48.154;11.536;2022-07-29T10:15:22;30.40;81.40
3816;DHT22;1923;48.154;11.536;2022-07-29T10:17:52;30.30;82.30
3816;DHT22;1923;48.154;11.536;2022-07-29T10:20:22;30.80;83.00
3816;DHT22;1923;48.154;11.536;2022-07-29T10:22:51;31.50;79.90
3816;DHT22;1923;48.154;11.536;2022-07-29T10:25:20;31.70;78.30
3816;DHT22;1923;48.154;11.536;2022-07-29T10:27:50;31.50;77.90
3816;DHT22;1923;48.154;11.536;2022-07-29T10:30:19;31.60;78.90
3816;DHT22;1923;48.154;11.536;2022-07-29T10:33:08;32.60;77.30
3816;DHT22;1923;48.154;11.536;2022-07-29T10:36:05;33.50;75.10
3816;DHT22;1923;48.154;11.536;2022-07-29T10:38:51;33.90;73.90
3816;DHT22;1923;48.154;11.536;2022-07-29T10:41:39;33.50;74.40
3816;DHT22;1923;48.154;11.536;2022-07-29T10:44:16;32.90;74.00
3816;DHT22;1923;48.154;11.536;2022-07-29T10:46:50;32.60;75.20
3816;DHT22;1923;48.154;11.536;2022-07-29T10:49:19;32.90;76.20
3816;DHT22;1923;48.154;11.536;2022-07-29T10:52:03;34.30;74.60
3816;DHT22;1923;48.154;11.536;2022-07-29T10:54:43;35.60;72.20
3816;DHT22;1923;48.154;11.536;2022-07-29T10:57:26;36.80;67.90
3816;DHT22;1923;48.154;11.536;2022-07-29T11:00:32;36.90;67.70
3816;DHT22;1923;48.154;11.536;2022-07-29T11:03:01;37.70;65.70
3816;DHT22;1923;48.154;11.536;2022-07-29T11:05:54;38.70;64.10
3816;DHT22;1923;48.154;11.536;2022-07-29T11:08:27;39.00;61.40
3816;DHT22;1923;48.154;11.536;2022-07-29T11:14:00;40.00;58.30
3816;DHT22;1923;48.154;11.536;2022-07-29T11:17:01;40.20;58.00
3816;DHT22;1923;48.154;11.536;2022-07-29T11:19:32;40.30;55.80
3816;DHT22;1923;48.154;11.536;2022-07-29T11:22:01;39.50;55.60
3816;DHT22;1923;48.154;11.536;2022-07-29T11:24:31;38.50;56.30
3816;DHT22;1923;48.154;11.536;2022-07-29T11:27:11;37.50;58.10
3816;DHT22;1923;48.154;11.536;2022-07-29T11:29:52;36.40;59.80
3816;DHT22;1923;48.154;11.536;2022-07-29T11:32:23;35.60;61.20
3816;DHT22;1923;48.154;11.536;2022-07-29T11:35:13;35.00;61.10
3816;DHT22;1923;48.154;11.536;2022-07-29T11:37:44;34.50;62.20
3816;DHT22;1923;48.154;11.536;2022-07-29T11:40:18;33.90;62.40
3816;DHT22;1923;48.154;11.536;2022-07-29T11:42:48;33.60;63.40
3816;DHT22;1923;48.154;11.536;2022-07-29T11:45:45;33.40;64.50
3816;DHT22;1923;48.154;11.536;2022-07-29T11:48:19;33.00;64.10
3816;DHT22;1923;48.154;11.536;2022-07-29T11:50:56;32.40;62.90
3816;DHT22;1923;48.154;11.536;2022-07-29T11:53:25;32.00;63.40
3816;DHT22;1923;48.154;11.536;2022-07-29T11:55:59;31.90;64.40
3816;DHT22;1923;48.154;11.536;2022-07-29T11:58:28;31.80;64.70
3816;DHT22;1923;48.154;11.536;2022-07-29T12:00:57;31.40;65.20
3816;DHT22;1923;48.154;11.536;2022-07-29T12:03:32;31.40;66.60
3816;DHT22;1923;48.154;11.536;2022-07-29T12:06:03;31.10;67.30
3816;DHT22;1923;48.154;11.536;2022-07-29T12:08:40;30.90;68.30
3816;DHT22;1923;48.154;11.536;2022-07-29T12:11:16;30.70;68.40
3816;DHT22;1923;48.154;11.536;2022-07-29T12:13:47;30.60;69.60
3816;DHT22;1923;48.154;11.536;2022-07-29T12:16:15;30.60;69.80
3816;DHT22;1923;48.154;11.536;2022-07-29T12:19:00;30.60;70.60
3816;DHT22;1923;48.154;11.536;2022-07-29T12:21:41;30.50;70.60
3816;DHT22;1923;48.154;11.536;2022-07-29T12:24:22;30.50;70.50
3816;DHT22;1923;48.154;11.536;2022-07-29T12:26:54;30.70;70.70
3816;DHT22;1923;48.154;11.536;2022-07-29T12:29:22;30.60;70.40
3816;DHT22;1923;48.154;11.536;2022-07-29T12:32:02;30.40;70.60
3816;DHT22;1923;48.154;11.536;2022-07-29T12:34:42;30.40;71.20
3816;DHT22;1923;48.154;11.536;2022-07-29T12:37:10;30.40;71.70
3816;DHT22;1923;48.154;11.536;2022-07-29T12:39:39;30.30;71.50
3816;DHT22;1923;48.154;11.536;2022-07-29T12:42:11;30.40;72.00
3816;DHT22;1923;48.154;11.536;2022-07-29T12:44:48;30.40;72.00
3816;DHT22;1923;48.154;11.536;2022-07-29T12:47:17;30.40;71.80
3816;DHT22;1923;48.154;11.536;2022-07-29T12:49:48;30.60;71.30
3816;DHT22;1923;48.154;11.536;2022-07-29T12:52:30;30.40;70.90
3816;DHT22;1923;48.154;11.536;2022-07-29T12:54:58;30.50;70.40
3816;DHT22;1923;48.154;11.536;2022-07-29T12:57:27;30.40;71.30
3816;DHT22;1923;48.154;11.536;2022-07-29T13:00:05;30.10;70.60
3816;DHT22;1923;48.154;11.536;2022-07-29T13:02:36;30.10;70.90
3816;DHT22;1923;48.154;11.536;2022-07-29T13:05:06;29.90;70.60
3816;DHT22;1923;48.154;11.536;2022-07-29T13:07:36;29.70;71.40
3816;DHT22;1923;48.154;11.536;2022-07-29T13:10:22;29.70;71.30
3816;DHT22;1923;48.154;11.536;2022-07-29T13:13:02;29.50;71.40
3816;DHT22;1923;48.154;11.536;2022-07-29T13:15:31;29.40;72.40
3816;DHT22;1923;48.154;11.536;2022-07-29T13:17:59;29.30;73.00
3816;DHT22;1923;48.154;11.536;2022-07-29T13:20:29;29.10;73.80
3816;DHT22;1923;48.154;11.536;2022-07-29T13:22:58;29.20;74.40
3816;DHT22;1923;48.154;11.536;2022-07-29T13:25:27;29.10;74.90
3816;DHT22;1923;48.154;11.536;2022-07-29T13:27:56;29.20;76.00
3816;DHT22;1923;48.154;11.536;2022-07-29T13:30:24;29.20;76.00
3816;DHT22;1923;48.154;11.536;2022-07-29T13:32:53;29.10;76.10
3816;DHT22;1923;48.154;11.536;2022-07-29T13:35:21;28.90;76.40
3816;DHT22;1923;48.154;11.536;2022-07-29T13:37:51;28.70;76.70
3816;DHT22;1923;48.154;11.536;2022-07-29T13:40:19;28.70;76.80
3816;DHT22;1923;48.154;11.536;2022-07-29T13:42:48;28.50;77.50
3816;DHT22;1923;48.154;11.536;2022-07-29T13:45:16;28.40;77.90
3816;DHT22;1923;48.154;11.536;2022-07-29T13:47:44;28.30;78.40
3816;DHT22;1923;48.154;11.536;2022-07-29T13:50:15;28.20;78.80
3816;DHT22;1923;48.154;11.536;2022-07-29T13:52:43;28.20;79.00
3816;DHT22;1923;48.154;11.536;2022-07-29T13:55:12;28.10;78.90
3816;DHT22;1923;48.154;11.536;2022-07-29T13:57:41;28.20;80.50
3816;DHT22;1923;48.154;11.536;2022-07-29T14:00:09;28.20;80.10
3816;DHT22;1923;48.154;11.536;2022-07-29T14:02:37;28.40;80.00
3816;DHT22;1923;48.154;11.536;2022-07-29T14:05:06;28.50;79.00
3816;DHT22;1923;48.154;11.536;2022-07-29T14:07:36;28.60;78.30
3816;DHT22;1923;48.154;11.536;2022-07-29T14:10:05;28.70;76.80
3816;DHT22;1923;48.154;11.536;2022-07-29T14:12:35;28.80;76.50
3816;DHT22;1923;48.154;11.536;2022-07-29T14:15:04;28.90;75.70
3816;DHT22;1923;48.154;11.536;2022-07-29T14:17:32;29.00;75.60
3816;DHT22;1923;48.154;11.536;2022-07-29T14:20:00;29.00;75.30
3816;DHT22;1923;48.154;11.536;2022-07-29T14:22:28;28.90;75.10
3816;DHT22;1923;48.154;11.536;2022-07-29T14:24:56;28.70;75.30
3816;DHT22;1923;48.154;11.536;2022-07-29T14:27:38;28.70;75.50
3816;DHT22;1923;48.154;11.536;2022-07-29T14:30:08;28.70;76.20
3816;DHT22;1923;48.154;11.536;2022-07-29T14:32:37;28.80;76.80
3816;DHT22;1923;48.154;11.536;2022-07-29T14:35:06;28.80;76.20
3816;DHT22;1923;48.154;11.536;2022-07-29T14:37:34;28.90;76.10
3816;DHT22;1923;48.154;11.536;2022-07-29T14:40:07;28.90;75.60
3816;DHT22;1923;48.154;11.536;2022-07-29T14:42:35;28.90;76.50
3816;DHT22;1923;48.154;11.536;2022-07-29T14:45:07;28.80;76.40
3816;DHT22;1923;48.154;11.536;2022-07-29T14:47:35;28.70;77.30
3816;DHT22;1923;48.154;11.536;2022-07-29T14:50:05;28.70;77.80
3816;DHT22;1923;48.154;11.536;2022-07-29T14:52:34;28.60;78.40
3816;DHT22;1923;48.154;11.536;2022-07-29T14:55:03;28.60;78.70
3816;DHT22;1923;48.154;11.536;2022-07-29T14:57:42;28.50;78.80
3816;DHT22;1923;48.154;11.536;2022-07-29T15:00:12;28.40;79.30
3816;DHT22;1923;48.154;11.536;2022-07-29T15:02:41;28.30;79.80
3816;DHT22;1923;48.154;11.536;2022-07-29T15:05:27;28.30;80.20
3816;DHT22;1923;48.154;11.536;2022-07-29T15:07:55;28.40;80.60
3816;DHT22;1923;48.154;11.536;2022-07-29T15:10:24;28.40;80.70
3816;DHT22;1923;48.154;11.536;2022-07-29T15:12:52;28.40;80.70
3816;DHT22;1923;48.154;11.536;2022-07-29T15:15:22;28.40;80.40
3816;DHT22;1923;48.154;11.536;2022-07-29T15:17:50;28.40;80.60
3816;DHT22;1923;48.154;11.536;2022-07-29T15:20:18;28.20;81.10
3816;DHT22;1923;48.154;11.536;2022-07-29T15:22:46;28.00;81.60
3816;DHT22;1923;48.154;11.536;2022-07-29T15:25:14;27.90;82.50
3816;DHT22;1923;48.154;11.536;2022-07-29T15:27:42;27.80;83.20
3816;DHT22;1923;48.154;11.536;2022-07-29T15:30:18;27.70;84.10
3816;DHT22;1923;48.154;11.536;2022-07-29T15:33:01;27.60;84.70
3816;DHT22;1923;48.154;11.536;2022-07-29T15:35:29;27.50;85.40
3816;DHT22;1923;48.154;11.536;2022-07-29T15:37:57;27.40;86.30
3816;DHT22;1923;48.154;11.536;2022-07-29T15:40:25;27.40;87.10
3816;DHT22;1923;48.154;11.536;2022-07-29T15:42:53;27.30;87.60
3816;DHT22;1923;48.154;11.536;2022-07-29T15:45:21;27.20;88.00
3816;DHT22;1923;48.154;11.536;2022-07-29T15:47:49;27.30;88.60
3816;DHT22;1923;48.154;11.536;2022-07-29T15:50:20;27.20;89.30
3816;DHT22;1923;48.154;11.536;2022-07-29T15:52:48;27.10;89.70
3816;DHT22;1923;48.154;11.536;2022-07-29T15:55:16;27.00;90.20
3816;DHT22;1923;48.154;11.536;2022-07-29T15:57:44;27.00;90.50
3816;DHT22;1923;48.154;11.536;2022-07-29T16:00:13;27.10;90.70
3816;DHT22;1923;48.154;11.536;2022-07-29T16:02:43;26.90;90.60
3816;DHT22;1923;48.154;11.536;2022-07-29T16:05:11;27.00;90.70
3816;DHT22;1923;48.154;11.536;2022-07-29T16:07:40;26.90;90.80
3816;DHT22;1923;48.154;11.536;2022-07-29T16:10:08;27.00;90.70
3816;DHT22;1923;48.154;11.536;2022-07-29T16:12:37;27.00;90.80
3816;DHT22;1923;48.154;11.536;2022-07-29T16:15:05;26.90;90.80